Chengdu, China
Current Conditions -  °F | °C
As of 10:00 PM on Tuesday 27 Jan 2015 (Local Time) from ZUUU Reporting Station
Haze Haze  
Wind Chill: 43°   Ceiling: 2000
Heat Index: 48°   Visibility: 3mi
Dew Point: 41°   Wind: 11mph
Humidity: 76%   Direction: 20°NNE
Pressure: 30"   Gusts: NA
Location:  30.67°N, 104.07°E
Report Text: ZUUU 271400Z 02005MPS 5000 BR BKN020 09/05 Q1016 NOSIG
Loading
Personal Weather Stations






























Interactive Weather Map New forecast layout! Learn more

10-Day Weather Forecast

Advertisements
Track Severe Weather on mobile